Terminal Aerodrome Forecast
Issued by NWS

Home | Current Version | Previous Version | Text Only | Print | Product List | Glossary On
Versions: 1 2 3 4 5 6 7 8 9 10 11 12 13 14 15 16 17
000
FTUS41 KBOX 182332
TAFHYA
TAF
KHYA 182332Z 1900/1924 19014KT P6SM VCSH BKN021 OVC030
     FM190200 19015G27KT 5SM +SHRA BR OVC010
     FM190700 19013G26KT 4SM SHRA BR OVC008
     FM191000 20010G20KT 2SM BR OVC008
     FM191500 21008KT P6SM BKN003
     FM192000 21013KT P6SM BKN050=

USA.gov is the U.S. government's official web portal to all federal, state and local government web resources and services.